sensor_id;sensor_type;location;lat;lon;timestamp;temperature;humidity
10149;DHT22;5115;50.920;6.376;2022-12-24T00:02:11;11.60;99.90
10149;DHT22;5115;50.920;6.376;2022-12-24T00:04:36;11.60;99.90
10149;DHT22;5115;50.920;6.376;2022-12-24T00:07:02;11.70;99.90
10149;DHT22;5115;50.920;6.376;2022-12-24T00:09:27;11.70;99.90
10149;DHT22;5115;50.920;6.376;2022-12-24T00:11:53;11.80;99.90
10149;DHT22;5115;50.920;6.376;2022-12-24T00:14:19;11.70;99.90
10149;DHT22;5115;50.920;6.376;2022-12-24T00:16:45;11.70;99.90
10149;DHT22;5115;50.920;6.376;2022-12-24T00:19:10;11.60;99.90
10149;DHT22;5115;50.920;6.376;2022-12-24T00:21:36;11.60;99.90
10149;DHT22;5115;50.920;6.376;2022-12-24T00:24:01;11.50;99.90
10149;DHT22;5115;50.920;6.376;2022-12-24T00:26:29;11.50;99.90
10149;DHT22;5115;50.920;6.376;2022-12-24T00:28:55;11.50;99.90
10149;DHT22;5115;50.920;6.376;2022-12-24T00:31:20;11.60;99.90
10149;DHT22;5115;50.920;6.376;2022-12-24T00:33:46;11.60;99.90
10149;DHT22;5115;50.920;6.376;2022-12-24T00:36:12;11.60;99.90
10149;DHT22;5115;50.920;6.376;2022-12-24T00:38:38;11.60;99.90
10149;DHT22;5115;50.920;6.376;2022-12-24T00:41:05;11.70;99.90
10149;DHT22;5115;50.920;6.376;2022-12-24T00:43:49;11.70;99.90
10149;DHT22;5115;50.920;6.376;2022-12-24T00:46:15;11.70;99.90
10149;DHT22;5115;50.920;6.376;2022-12-24T00:48:40;11.80;99.90
10149;DHT22;5115;50.920;6.376;2022-12-24T00:51:06;11.70;99.90
10149;DHT22;5115;50.920;6.376;2022-12-24T00:53:31;11.80;99.90
10149;DHT22;5115;50.920;6.376;2022-12-24T00:55:57;11.80;99.90
10149;DHT22;5115;50.920;6.376;2022-12-24T00:58:22;11.90;99.90
10149;DHT22;5115;50.920;6.376;2022-12-24T01:00:48;11.90;99.90
10149;DHT22;5115;50.920;6.376;2022-12-24T01:03:13;11.90;99.90
10149;DHT22;5115;50.920;6.376;2022-12-24T01:05:39;11.90;99.90
10149;DHT22;5115;50.920;6.376;2022-12-24T01:08:04;11.80;99.90
10149;DHT22;5115;50.920;6.376;2022-12-24T01:10:30;11.90;99.90
10149;DHT22;5115;50.920;6.376;2022-12-24T01:12:55;11.90;99.90
10149;DHT22;5115;50.920;6.376;2022-12-24T01:15:21;11.90;99.90
10149;DHT22;5115;50.920;6.376;2022-12-24T01:17:49;11.80;99.90
10149;DHT22;5115;50.920;6.376;2022-12-24T01:20:16;11.80;99.90
10149;DHT22;5115;50.920;6.376;2022-12-24T01:22:41;11.70;99.90
10149;DHT22;5115;50.920;6.376;2022-12-24T01:25:11;11.80;99.90
10149;DHT22;5115;50.920;6.376;2022-12-24T01:27:37;12.30;99.90
10149;DHT22;5115;50.920;6.376;2022-12-24T01:30:07;11.70;99.90
10149;DHT22;5115;50.920;6.376;2022-12-24T01:32:33;11.70;99.90
10149;DHT22;5115;50.920;6.376;2022-12-24T01:34:59;11.60;99.90
10149;DHT22;5115;50.920;6.376;2022-12-24T01:37:25;11.50;99.90
10149;DHT22;5115;50.920;6.376;2022-12-24T01:39:51;11.50;99.90
10149;DHT22;5115;50.920;6.376;2022-12-24T01:42:37;11.50;99.90
10149;DHT22;5115;50.920;6.376;2022-12-24T01:45:41;11.50;99.90
10149;DHT22;5115;50.920;6.376;2022-12-24T01:50:57;11.40;99.90
10149;DHT22;5115;50.920;6.376;2022-12-24T01:53:25;11.40;99.90
10149;DHT22;5115;50.920;6.376;2022-12-24T01:55:54;11.40;99.90
10149;DHT22;5115;50.920;6.376;2022-12-24T01:58:21;11.40;99.90
10149;DHT22;5115;50.920;6.376;2022-12-24T02:00:48;11.40;99.90
10149;DHT22;5115;50.920;6.376;2022-12-24T02:03:14;11.40;99.90
10149;DHT22;5115;50.920;6.376;2022-12-24T02:05:53;11.40;99.90
10149;DHT22;5115;50.920;6.376;2022-12-24T02:08:20;11.40;99.90
10149;DHT22;5115;50.920;6.376;2022-12-24T02:10:47;11.30;99.90
10149;DHT22;5115;50.920;6.376;2022-12-24T02:13:15;11.40;99.90
10149;DHT22;5115;50.920;6.376;2022-12-24T02:18:43;11.40;99.90
10149;DHT22;5115;50.920;6.376;2022-12-24T02:24:20;11.40;99.90
10149;DHT22;5115;50.920;6.376;2022-12-24T02:27:06;11.50;99.90
10149;DHT22;5115;50.920;6.376;2022-12-24T02:32:52;11.50;99.90
10149;DHT22;5115;50.920;6.376;2022-12-24T02:35:27;11.50;99.90
10149;DHT22;5115;50.920;6.376;2022-12-24T02:38:04;11.60;99.90
10149;DHT22;5115;50.920;6.376;2022-12-24T02:40:38;11.50;99.90
10149;DHT22;5115;50.920;6.376;2022-12-24T02:43:12;11.40;99.90
10149;DHT22;5115;50.920;6.376;2022-12-24T02:45:39;11.40;99.90
10149;DHT22;5115;50.920;6.376;2022-12-24T02:48:07;11.40;99.90
10149;DHT22;5115;50.920;6.376;2022-12-24T02:50:34;11.40;99.90
10149;DHT22;5115;50.920;6.376;2022-12-24T02:52:59;11.40;99.90
10149;DHT22;5115;50.920;6.376;2022-12-24T02:55:38;11.40;99.90
10149;DHT22;5115;50.920;6.376;2022-12-24T03:07:01;11.30;99.90
10149;DHT22;5115;50.920;6.376;2022-12-24T03:09:37;11.30;99.90
10149;DHT22;5115;50.920;6.376;2022-12-24T03:12:09;11.30;99.90
10149;DHT22;5115;50.920;6.376;2022-12-24T03:14:38;11.30;99.90
10149;DHT22;5115;50.920;6.376;2022-12-24T03:17:04;11.20;99.90
10149;DHT22;5115;50.920;6.376;2022-12-24T03:19:30;11.20;99.90
10149;DHT22;5115;50.920;6.376;2022-12-24T03:21:58;11.20;99.90
10149;DHT22;5115;50.920;6.376;2022-12-24T03:24:25;11.10;99.90
10149;DHT22;5115;50.920;6.376;2022-12-24T03:26:50;11.00;99.90
10149;DHT22;5115;50.920;6.376;2022-12-24T03:29:16;10.90;99.90
10149;DHT22;5115;50.920;6.376;2022-12-24T03:31:45;10.90;99.90
10149;DHT22;5115;50.920;6.376;2022-12-24T03:34:11;10.90;99.90
10149;DHT22;5115;50.920;6.376;2022-12-24T03:36:37;11.00;99.90
10149;DHT22;5115;50.920;6.376;2022-12-24T03:39:04;10.90;99.90
10149;DHT22;5115;50.920;6.376;2022-12-24T03:41:29;10.90;99.90
10149;DHT22;5115;50.920;6.376;2022-12-24T03:43:55;11.00;99.90
10149;DHT22;5115;50.920;6.376;2022-12-24T03:46:21;10.90;99.90
10149;DHT22;5115;50.920;6.376;2022-12-24T03:48:46;10.80;99.90
10149;DHT22;5115;50.920;6.376;2022-12-24T03:51:20;10.60;99.90
10149;DHT22;5115;50.920;6.376;2022-12-24T03:53:46;10.60;99.90
10149;DHT22;5115;50.920;6.376;2022-12-24T03:56:12;10.70;99.90
10149;DHT22;5115;50.920;6.376;2022-12-24T03:58:38;10.60;99.90
10149;DHT22;5115;50.920;6.376;2022-12-24T04:01:03;10.60;99.90
10149;DHT22;5115;50.920;6.376;2022-12-24T04:03:29;10.60;99.90
10149;DHT22;5115;50.920;6.376;2022-12-24T04:06:09;10.50;99.90
10149;DHT22;5115;50.920;6.376;2022-12-24T04:08:35;10.60;99.90
10149;DHT22;5115;50.920;6.376;2022-12-24T04:11:03;10.60;99.90
10149;DHT22;5115;50.920;6.376;2022-12-24T04:13:29;10.60;99.90
10149;DHT22;5115;50.920;6.376;2022-12-24T04:16:03;10.60;99.90
10149;DHT22;5115;50.920;6.376;2022-12-24T04:18:29;10.70;99.90
10149;DHT22;5115;50.920;6.376;2022-12-24T04:20:55;10.70;99.90
10149;DHT22;5115;50.920;6.376;2022-12-24T04:23:21;10.60;99.90
10149;DHT22;5115;50.920;6.376;2022-12-24T04:25:47;10.60;99.90
10149;DHT22;5115;50.920;6.376;2022-12-24T04:28:13;10.60;99.90
10149;DHT22;5115;50.920;6.376;2022-12-24T04:30:40;10.60;99.90
10149;DHT22;5115;50.920;6.376;2022-12-24T04:33:06;10.60;99.90
10149;DHT22;5115;50.920;6.376;2022-12-24T04:35:32;10.60;99.90
10149;DHT22;5115;50.920;6.376;2022-12-24T04:37:57;10.60;99.90
10149;DHT22;5115;50.920;6.376;2022-12-24T04:40:24;10.60;99.90
10149;DHT22;5115;50.920;6.376;2022-12-24T04:42:49;10.60;99.90
10149;DHT22;5115;50.920;6.376;2022-12-24T04:45:16;10.60;99.90
10149;DHT22;5115;50.920;6.376;2022-12-24T04:47:42;10.70;99.90
10149;DHT22;5115;50.920;6.376;2022-12-24T04:50:08;10.60;99.90
10149;DHT22;5115;50.920;6.376;2022-12-24T04:52:33;10.70;99.90
10149;DHT22;5115;50.920;6.376;2022-12-24T04:54:59;10.80;99.90
10149;DHT22;5115;50.920;6.376;2022-12-24T04:57:24;10.80;99.90
10149;DHT22;5115;50.920;6.376;2022-12-24T04:59:50;10.80;99.90
10149;DHT22;5115;50.920;6.376;2022-12-24T05:02:16;11.00;99.90
10149;DHT22;5115;50.920;6.376;2022-12-24T05:04:41;11.00;99.90
10149;DHT22;5115;50.920;6.376;2022-12-24T05:07:07;11.00;99.90
10149;DHT22;5115;50.920;6.376;2022-12-24T05:09:32;11.00;99.90
10149;DHT22;5115;50.920;6.376;2022-12-24T05:11:58;11.00;99.90
10149;DHT22;5115;50.920;6.376;2022-12-24T05:14:23;11.00;99.90
10149;DHT22;5115;50.920;6.376;2022-12-24T05:16:49;11.10;99.90
10149;DHT22;5115;50.920;6.376;2022-12-24T05:19:14;11.10;99.90
10149;DHT22;5115;50.920;6.376;2022-12-24T05:21:40;11.00;99.90
10149;DHT22;5115;50.920;6.376;2022-12-24T05:24:06;11.10;99.90
10149;DHT22;5115;50.920;6.376;2022-12-24T05:26:55;11.10;99.90
10149;DHT22;5115;50.920;6.376;2022-12-24T05:29:21;11.00;99.90
10149;DHT22;5115;50.920;6.376;2022-12-24T05:31:47;11.10;99.90
10149;DHT22;5115;50.920;6.376;2022-12-24T05:34:14;11.00;99.90
10149;DHT22;5115;50.920;6.376;2022-12-24T05:36:41;11.00;99.90
10149;DHT22;5115;50.920;6.376;2022-12-24T05:39:07;11.00;99.90
10149;DHT22;5115;50.920;6.376;2022-12-24T05:41:32;11.00;99.90
10149;DHT22;5115;50.920;6.376;2022-12-24T05:43:58;11.00;99.90
10149;DHT22;5115;50.920;6.376;2022-12-24T05:46:24;11.00;99.90
10149;DHT22;5115;50.920;6.376;2022-12-24T05:48:51;11.00;99.90
10149;DHT22;5115;50.920;6.376;2022-12-24T05:51:18;11.00;99.90
10149;DHT22;5115;50.920;6.376;2022-12-24T05:53:45;11.10;99.90
10149;DHT22;5115;50.920;6.376;2022-12-24T05:56:14;11.00;99.90
10149;DHT22;5115;50.920;6.376;2022-12-24T05:58:42;11.10;99.90
10149;DHT22;5115;50.920;6.376;2022-12-24T06:01:09;11.20;99.90
10149;DHT22;5115;50.920;6.376;2022-12-24T06:03:35;11.20;99.90
10149;DHT22;5115;50.920;6.376;2022-12-24T06:08:28;11.20;99.90
10149;DHT22;5115;50.920;6.376;2022-12-24T06:10:59;11.20;99.90
10149;DHT22;5115;50.920;6.376;2022-12-24T06:13:25;11.20;99.90
10149;DHT22;5115;50.920;6.376;2022-12-24T06:15:55;11.20;99.90
10149;DHT22;5115;50.920;6.376;2022-12-24T06:18:21;11.20;99.90
10149;DHT22;5115;50.920;6.376;2022-12-24T06:20:52;11.10;99.90
10149;DHT22;5115;50.920;6.376;2022-12-24T06:23:19;11.20;99.90
10149;DHT22;5115;50.920;6.376;2022-12-24T06:25:45;11.10;99.90
10149;DHT22;5115;50.920;6.376;2022-12-24T06:28:10;11.20;99.90
10149;DHT22;5115;50.920;6.376;2022-12-24T06:30:36;11.20;99.90
10149;DHT22;5115;50.920;6.376;2022-12-24T06:33:01;11.10;99.90
10149;DHT22;5115;50.920;6.376;2022-12-24T06:35:27;11.20;99.90
10149;DHT22;5115;50.920;6.376;2022-12-24T06:37:52;11.20;99.90
10149;DHT22;5115;50.920;6.376;2022-12-24T06:40:18;11.20;99.90
10149;DHT22;5115;50.920;6.376;2022-12-24T06:42:43;11.20;99.90
10149;DHT22;5115;50.920;6.376;2022-12-24T06:45:09;11.20;99.90
10149;DHT22;5115;50.920;6.376;2022-12-24T06:47:35;11.20;99.90
10149;DHT22;5115;50.920;6.376;2022-12-24T06:50:00;11.20;99.90
10149;DHT22;5115;50.920;6.376;2022-12-24T06:52:26;11.20;99.90
10149;DHT22;5115;50.920;6.376;2022-12-24T06:54:52;11.20;99.90
10149;DHT22;5115;50.920;6.376;2022-12-24T06:57:17;11.20;99.90
10149;DHT22;5115;50.920;6.376;2022-12-24T06:59:43;11.30;99.90
10149;DHT22;5115;50.920;6.376;2022-12-24T07:02:09;11.20;99.90
10149;DHT22;5115;50.920;6.376;2022-12-24T07:04:34;11.20;99.90
10149;DHT22;5115;50.920;6.376;2022-12-24T07:07:00;11.50;99.90
10149;DHT22;5115;50.920;6.376;2022-12-24T07:09:25;11.20;99.90
10149;DHT22;5115;50.920;6.376;2022-12-24T07:11:51;11.30;99.90
10149;DHT22;5115;50.920;6.376;2022-12-24T07:14:16;11.30;99.90
10149;DHT22;5115;50.920;6.376;2022-12-24T07:16:42;11.30;99.90
10149;DHT22;5115;50.920;6.376;2022-12-24T07:19:07;11.30;99.90
10149;DHT22;5115;50.920;6.376;2022-12-24T07:21:33;11.40;99.90
10149;DHT22;5115;50.920;6.376;2022-12-24T07:23:58;11.40;99.90
10149;DHT22;5115;50.920;6.376;2022-12-24T07:26:24;11.40;99.90
10149;DHT22;5115;50.920;6.376;2022-12-24T07:28:49;11.30;99.90
10149;DHT22;5115;50.920;6.376;2022-12-24T07:31:15;11.40;99.90
10149;DHT22;5115;50.920;6.376;2022-12-24T07:33:40;11.30;99.90
10149;DHT22;5115;50.920;6.376;2022-12-24T07:36:08;11.30;99.90
10149;DHT22;5115;50.920;6.376;2022-12-24T07:38:34;11.40;99.90
10149;DHT22;5115;50.920;6.376;2022-12-24T07:41:00;11.40;99.90
10149;DHT22;5115;50.920;6.376;2022-12-24T07:43:26;11.40;99.90
10149;DHT22;5115;50.920;6.376;2022-12-24T07:45:56;11.40;99.90
10149;DHT22;5115;50.920;6.376;2022-12-24T07:48:22;11.50;99.90
10149;DHT22;5115;50.920;6.376;2022-12-24T07:50:49;11.50;99.90
10149;DHT22;5115;50.920;6.376;2022-12-24T07:53:14;11.50;99.90
10149;DHT22;5115;50.920;6.376;2022-12-24T07:55:40;11.50;99.90
10149;DHT22;5115;50.920;6.376;2022-12-24T07:58:05;11.50;99.90
10149;DHT22;5115;50.920;6.376;2022-12-24T08:00:31;11.50;99.90
10149;DHT22;5115;50.920;6.376;2022-12-24T08:02:56;11.40;99.90
10149;DHT22;5115;50.920;6.376;2022-12-24T08:05:25;11.50;99.90
10149;DHT22;5115;50.920;6.376;2022-12-24T08:07:51;11.60;99.90
10149;DHT22;5115;50.920;6.376;2022-12-24T08:10:16;11.60;99.90
10149;DHT22;5115;50.920;6.376;2022-12-24T08:12:42;11.70;99.90
10149;DHT22;5115;50.920;6.376;2022-12-24T08:15:08;11.70;99.90
10149;DHT22;5115;50.920;6.376;2022-12-24T08:17:33;11.60;99.90
10149;DHT22;5115;50.920;6.376;2022-12-24T08:19:59;11.60;99.90
10149;DHT22;5115;50.920;6.376;2022-12-24T08:22:24;11.60;99.90
10149;DHT22;5115;50.920;6.376;2022-12-24T08:24:50;11.60;99.90
10149;DHT22;5115;50.920;6.376;2022-12-24T08:27:15;11.60;99.90
10149;DHT22;5115;50.920;6.376;2022-12-24T08:29:41;11.60;99.90
10149;DHT22;5115;50.920;6.376;2022-12-24T08:32:06;11.60;99.90
10149;DHT22;5115;50.920;6.376;2022-12-24T08:34:32;11.70;99.90
10149;DHT22;5115;50.920;6.376;2022-12-24T08:36:57;11.70;99.90
10149;DHT22;5115;50.920;6.376;2022-12-24T08:39:23;11.70;99.90
10149;DHT22;5115;50.920;6.376;2022-12-24T08:41:49;11.80;99.90
10149;DHT22;5115;50.920;6.376;2022-12-24T08:44:14;11.90;99.90
10149;DHT22;5115;50.920;6.376;2022-12-24T08:46:40;11.90;99.90
10149;DHT22;5115;50.920;6.376;2022-12-24T08:49:05;11.90;99.90
10149;DHT22;5115;50.920;6.376;2022-12-24T08:51:31;11.90;99.90
10149;DHT22;5115;50.920;6.376;2022-12-24T08:53:56;11.90;99.90
10149;DHT22;5115;50.920;6.376;2022-12-24T08:56:22;11.90;99.90
10149;DHT22;5115;50.920;6.376;2022-12-24T08:58:48;11.90;99.90
10149;DHT22;5115;50.920;6.376;2022-12-24T09:01:16;11.90;99.90
10149;DHT22;5115;50.920;6.376;2022-12-24T09:03:42;12.00;99.90
10149;DHT22;5115;50.920;6.376;2022-12-24T09:06:08;12.00;99.90
10149;DHT22;5115;50.920;6.376;2022-12-24T09:08:34;12.00;99.90
10149;DHT22;5115;50.920;6.376;2022-12-24T09:11:17;12.10;99.90
10149;DHT22;5115;50.920;6.376;2022-12-24T09:13:43;12.50;99.90
10149;DHT22;5115;50.920;6.376;2022-12-24T09:16:09;12.10;99.90
10149;DHT22;5115;50.920;6.376;2022-12-24T09:18:35;12.10;99.90
10149;DHT22;5115;50.920;6.376;2022-12-24T09:21:03;12.10;99.90
10149;DHT22;5115;50.920;6.376;2022-12-24T09:23:30;12.00;99.90
10149;DHT22;5115;50.920;6.376;2022-12-24T09:25:56;12.00;99.90
10149;DHT22;5115;50.920;6.376;2022-12-24T09:28:22;12.00;99.90
10149;DHT22;5115;50.920;6.376;2022-12-24T09:30:58;12.00;99.90
10149;DHT22;5115;50.920;6.376;2022-12-24T09:33:25;11.50;99.90
10149;DHT22;5115;50.920;6.376;2022-12-24T09:35:52;12.00;99.90
10149;DHT22;5115;50.920;6.376;2022-12-24T09:38:19;12.00;99.90
10149;DHT22;5115;50.920;6.376;2022-12-24T09:40:44;12.00;99.90
10149;DHT22;5115;50.920;6.376;2022-12-24T09:48:31;12.00;99.90
10149;DHT22;5115;50.920;6.376;2022-12-24T09:51:08;12.00;99.90
10149;DHT22;5115;50.920;6.376;2022-12-24T09:53:59;12.00;99.90
10149;DHT22;5115;50.920;6.376;2022-12-24T09:56:29;12.00;99.90
10149;DHT22;5115;50.920;6.376;2022-12-24T09:59:03;12.10;99.90
10149;DHT22;5115;50.920;6.376;2022-12-24T10:01:31;12.10;99.90
10149;DHT22;5115;50.920;6.376;2022-12-24T10:04:02;12.20;99.90
10149;DHT22;5115;50.920;6.376;2022-12-24T10:06:43;12.20;99.90
10149;DHT22;5115;50.920;6.376;2022-12-24T10:09:16;12.20;99.90
10149;DHT22;5115;50.920;6.376;2022-12-24T10:17:18;12.30;99.90
10149;DHT22;5115;50.920;6.376;2022-12-24T10:20:06;12.40;99.90
10149;DHT22;5115;50.920;6.376;2022-12-24T10:22:57;12.50;99.90
10149;DHT22;5115;50.920;6.376;2022-12-24T10:28:00;12.50;99.90
10149;DHT22;5115;50.920;6.376;2022-12-24T10:30:27;12.50;99.90
10149;DHT22;5115;50.920;6.376;2022-12-24T10:32:53;12.60;99.90
10149;DHT22;5115;50.920;6.376;2022-12-24T10:35:24;12.50;99.90
10149;DHT22;5115;50.920;6.376;2022-12-24T10:37:51;12.50;99.90
10149;DHT22;5115;50.920;6.376;2022-12-24T10:40:40;12.50;99.90
10149;DHT22;5115;50.920;6.376;2022-12-24T10:43:21;12.50;99.90
10149;DHT22;5115;50.920;6.376;2022-12-24T10:45:49;12.50;99.90
10149;DHT22;5115;50.920;6.376;2022-12-24T10:48:28;12.40;99.90
10149;DHT22;5115;50.920;6.376;2022-12-24T10:50:59;12.50;99.90
10149;DHT22;5115;50.920;6.376;2022-12-24T10:53:45;12.50;99.90
10149;DHT22;5115;50.920;6.376;2022-12-24T10:56:15;12.50;99.90
10149;DHT22;5115;50.920;6.376;2022-12-24T10:58:46;12.50;99.90
10149;DHT22;5115;50.920;6.376;2022-12-24T11:01:15;12.60;99.90
10149;DHT22;5115;50.920;6.376;2022-12-24T11:03:41;12.60;99.90
10149;DHT22;5115;50.920;6.376;2022-12-24T11:06:14;12.70;99.90
10149;DHT22;5115;50.920;6.376;2022-12-24T11:08:45;12.80;99.90
10149;DHT22;5115;50.920;6.376;2022-12-24T11:11:18;12.90;99.90
10149;DHT22;5115;50.920;6.376;2022-12-24T11:13:52;13.10;99.90
10149;DHT22;5115;50.920;6.376;2022-12-24T11:16:20;13.30;99.90
10149;DHT22;5115;50.920;6.376;2022-12-24T11:18:53;13.30;99.90
10149;DHT22;5115;50.920;6.376;2022-12-24T11:21:42;13.30;99.90
10149;DHT22;5115;50.920;6.376;2022-12-24T11:26:40;13.00;99.90
10149;DHT22;5115;50.920;6.376;2022-12-24T11:31:42;13.10;99.90
10149;DHT22;5115;50.920;6.376;2022-12-24T11:34:31;13.00;99.90
10149;DHT22;5115;50.920;6.376;2022-12-24T11:37:09;13.10;99.90
10149;DHT22;5115;50.920;6.376;2022-12-24T11:39:40;13.60;99.90
10149;DHT22;5115;50.920;6.376;2022-12-24T11:42:06;13.90;99.90
10149;DHT22;5115;50.920;6.376;2022-12-24T11:44:48;14.20;99.90
10149;DHT22;5115;50.920;6.376;2022-12-24T11:47:14;14.30;99.90
10149;DHT22;5115;50.920;6.376;2022-12-24T11:49:39;14.30;99.90
10149;DHT22;5115;50.920;6.376;2022-12-24T11:54:42;14.10;99.90
10149;DHT22;5115;50.920;6.376;2022-12-24T11:57:12;14.00;99.90
10149;DHT22;5115;50.920;6.376;2022-12-24T11:59:42;13.70;99.90
10149;DHT22;5115;50.920;6.376;2022-12-24T12:02:30;13.60;99.90
10149;DHT22;5115;50.920;6.376;2022-12-24T12:05:02;13.50;99.90
10149;DHT22;5115;50.920;6.376;2022-12-24T12:07:34;13.40;99.90
10149;DHT22;5115;50.920;6.376;2022-12-24T12:12:45;13.30;99.90
10149;DHT22;5115;50.920;6.376;2022-12-24T12:15:15;13.30;99.90
10149;DHT22;5115;50.920;6.376;2022-12-24T12:17:53;13.20;99.90
10149;DHT22;5115;50.920;6.376;2022-12-24T12:20:30;13.20;99.90
10149;DHT22;5115;50.920;6.376;2022-12-24T12:23:02;13.30;99.90
10149;DHT22;5115;50.920;6.376;2022-12-24T12:25:40;13.40;99.90
10149;DHT22;5115;50.920;6.376;2022-12-24T12:28:21;13.50;99.90
10149;DHT22;5115;50.920;6.376;2022-12-24T12:31:15;13.60;99.90
10149;DHT22;5115;50.920;6.376;2022-12-24T12:33:58;13.70;99.90
10149;DHT22;5115;50.920;6.376;2022-12-24T12:36:35;13.70;99.90
10149;DHT22;5115;50.920;6.376;2022-12-24T12:39:03;13.80;99.90
10149;DHT22;5115;50.920;6.376;2022-12-24T12:41:38;13.80;99.90
10149;DHT22;5115;50.920;6.376;2022-12-24T12:44:19;13.80;99.90
10149;DHT22;5115;50.920;6.376;2022-12-24T12:50:06;13.80;99.90
10149;DHT22;5115;50.920;6.376;2022-12-24T12:57:59;13.70;99.90
10149;DHT22;5115;50.920;6.376;2022-12-24T13:00:26;13.70;99.90
10149;DHT22;5115;50.920;6.376;2022-12-24T13:06:27;13.70;99.90
10149;DHT22;5115;50.920;6.376;2022-12-24T13:20:26;13.30;99.90
10149;DHT22;5115;50.920;6.376;2022-12-24T13:22:58;13.30;99.90
10149;DHT22;5115;50.920;6.376;2022-12-24T13:25:39;13.30;99.90
10149;DHT22;5115;50.920;6.376;2022-12-24T13:30:40;13.00;99.90
10149;DHT22;5115;50.920;6.376;2022-12-24T13:33:10;13.00;99.90
10149;DHT22;5115;50.920;6.376;2022-12-24T13:35:55;13.00;99.90
10149;DHT22;5115;50.920;6.376;2022-12-24T13:40:54;12.90;99.90
10149;DHT22;5115;50.920;6.376;2022-12-24T13:43:20;12.90;99.90
10149;DHT22;5115;50.920;6.376;2022-12-24T13:45:48;12.90;99.90
10149;DHT22;5115;50.920;6.376;2022-12-24T13:48:27;12.90;99.90
10149;DHT22;5115;50.920;6.376;2022-12-24T13:50:56;12.90;99.90
10149;DHT22;5115;50.920;6.376;2022-12-24T13:58:23;13.00;99.90
10149;DHT22;5115;50.920;6.376;2022-12-24T14:00:58;13.00;99.90
10149;DHT22;5115;50.920;6.376;2022-12-24T14:03:31;13.00;99.90
10149;DHT22;5115;50.920;6.376;2022-12-24T14:06:01;12.90;99.90
10149;DHT22;5115;50.920;6.376;2022-12-24T14:08:40;12.80;99.90
10149;DHT22;5115;50.920;6.376;2022-12-24T14:11:10;12.80;99.90
10149;DHT22;5115;50.920;6.376;2022-12-24T14:16:24;12.70;99.90
10149;DHT22;5115;50.920;6.376;2022-12-24T14:19:17;12.70;99.90
10149;DHT22;5115;50.920;6.376;2022-12-24T14:21:55;12.60;99.90
10149;DHT22;5115;50.920;6.376;2022-12-24T14:24:25;12.60;99.90
10149;DHT22;5115;50.920;6.376;2022-12-24T14:26:56;12.60;99.90
10149;DHT22;5115;50.920;6.376;2022-12-24T14:29:35;12.60;99.90
10149;DHT22;5115;50.920;6.376;2022-12-24T14:32:13;12.60;99.90
10149;DHT22;5115;50.920;6.376;2022-12-24T14:34:40;12.50;99.90
10149;DHT22;5115;50.920;6.376;2022-12-24T14:37:05;12.40;99.90
10149;DHT22;5115;50.920;6.376;2022-12-24T14:39:36;12.50;99.90
10149;DHT22;5115;50.920;6.376;2022-12-24T14:50:41;12.40;99.90
10149;DHT22;5115;50.920;6.376;2022-12-24T14:56:15;12.40;99.90
10149;DHT22;5115;50.920;6.376;2022-12-24T14:58:42;12.30;99.90
10149;DHT22;5115;50.920;6.376;2022-12-24T15:01:23;12.30;99.90
10149;DHT22;5115;50.920;6.376;2022-12-24T15:04:13;12.20;99.90
10149;DHT22;5115;50.920;6.376;2022-12-24T15:06:50;12.20;99.90
10149;DHT22;5115;50.920;6.376;2022-12-24T15:11:53;12.20;99.90
10149;DHT22;5115;50.920;6.376;2022-12-24T15:14:20;12.10;99.90
10149;DHT22;5115;50.920;6.376;2022-12-24T15:16:55;12.10;99.90
10149;DHT22;5115;50.920;6.376;2022-12-24T15:19:26;12.10;99.90
10149;DHT22;5115;50.920;6.376;2022-12-24T15:21:53;12.10;99.90
10149;DHT22;5115;50.920;6.376;2022-12-24T15:24:23;12.10;99.90
10149;DHT22;5115;50.920;6.376;2022-12-24T15:26:50;12.10;99.90
10149;DHT22;5115;50.920;6.376;2022-12-24T15:29:21;12.10;99.90
10149;DHT22;5115;50.920;6.376;2022-12-24T15:31:55;12.20;99.90
10149;DHT22;5115;50.920;6.376;2022-12-24T15:34:31;12.20;99.90
10149;DHT22;5115;50.920;6.376;2022-12-24T15:39:35;12.20;99.90
10149;DHT22;5115;50.920;6.376;2022-12-24T15:42:01;12.10;99.90
10149;DHT22;5115;50.920;6.376;2022-12-24T15:44:43;12.10;99.90
10149;DHT22;5115;50.920;6.376;2022-12-24T15:47:15;12.10;99.90
10149;DHT22;5115;50.920;6.376;2022-12-24T15:49:46;12.00;99.90
10149;DHT22;5115;50.920;6.376;2022-12-24T15:52:15;12.00;99.90
10149;DHT22;5115;50.920;6.376;2022-12-24T15:54:46;11.90;99.90
10149;DHT22;5115;50.920;6.376;2022-12-24T15:57:28;11.90;99.90
10149;DHT22;5115;50.920;6.376;2022-12-24T15:59:56;11.90;99.90
10149;DHT22;5115;50.920;6.376;2022-12-24T16:05:28;11.90;99.90
10149;DHT22;5115;50.920;6.376;2022-12-24T16:10:40;11.90;99.90
10149;DHT22;5115;50.920;6.376;2022-12-24T16:15:52;11.90;99.90
10149;DHT22;5115;50.920;6.376;2022-12-24T16:18:32;11.90;99.90
10149;DHT22;5115;50.920;6.376;2022-12-24T16:20:58;11.90;99.90
10149;DHT22;5115;50.920;6.376;2022-12-24T16:23:28;11.80;99.90
10149;DHT22;5115;50.920;6.376;2022-12-24T16:25:57;11.70;99.90
10149;DHT22;5115;50.920;6.376;2022-12-24T16:28:25;11.60;99.90
10149;DHT22;5115;50.920;6.376;2022-12-24T16:30:50;11.50;99.90
10149;DHT22;5115;50.920;6.376;2022-12-24T16:33:18;11.50;99.90
10149;DHT22;5115;50.920;6.376;2022-12-24T16:35:44;11.40;99.90
10149;DHT22;5115;50.920;6.376;2022-12-24T16:38:10;11.40;99.90
10149;DHT22;5115;50.920;6.376;2022-12-24T16:40:40;11.30;99.90
10149;DHT22;5115;50.920;6.376;2022-12-24T16:43:07;11.20;99.90
10149;DHT22;5115;50.920;6.376;2022-12-24T16:45:52;11.10;99.90
10149;DHT22;5115;50.920;6.376;2022-12-24T16:48:22;11.10;99.90
10149;DHT22;5115;50.920;6.376;2022-12-24T16:50:50;11.50;99.90
10149;DHT22;5115;50.920;6.376;2022-12-24T16:53:17;11.00;99.90
10149;DHT22;5115;50.920;6.376;2022-12-24T16:55:44;10.90;99.90
10149;DHT22;5115;50.920;6.376;2022-12-24T16:58:11;10.90;99.90
10149;DHT22;5115;50.920;6.376;2022-12-24T17:00:37;10.90;99.90
10149;DHT22;5115;50.920;6.376;2022-12-24T17:03:03;11.00;99.90
10149;DHT22;5115;50.920;6.376;2022-12-24T17:05:29;11.00;99.90
10149;DHT22;5115;50.920;6.376;2022-12-24T17:07:54;11.10;99.90
10149;DHT22;5115;50.920;6.376;2022-12-24T17:10:20;11.10;99.90
10149;DHT22;5115;50.920;6.376;2022-12-24T17:12:45;11.20;99.90
10149;DHT22;5115;50.920;6.376;2022-12-24T17:15:11;11.20;99.90
10149;DHT22;5115;50.920;6.376;2022-12-24T17:17:36;11.20;99.90
10149;DHT22;5115;50.920;6.376;2022-12-24T17:20:02;11.20;99.90
10149;DHT22;5115;50.920;6.376;2022-12-24T17:22:29;11.20;99.90
10149;DHT22;5115;50.920;6.376;2022-12-24T17:24:55;11.20;99.90
10149;DHT22;5115;50.920;6.376;2022-12-24T17:27:21;11.20;99.90
10149;DHT22;5115;50.920;6.376;2022-12-24T17:29:46;11.10;99.90
10149;DHT22;5115;50.920;6.376;2022-12-24T17:32:12;11.10;99.90
10149;DHT22;5115;50.920;6.376;2022-12-24T17:34:38;11.00;99.90
10149;DHT22;5115;50.920;6.376;2022-12-24T17:37:04;10.90;99.90
10149;DHT22;5115;50.920;6.376;2022-12-24T17:39:29;10.80;99.90
10149;DHT22;5115;50.920;6.376;2022-12-24T17:41:55;10.80;99.90
10149;DHT22;5115;50.920;6.376;2022-12-24T17:44:21;10.70;99.90
10149;DHT22;5115;50.920;6.376;2022-12-24T17:46:47;10.60;99.90